createdAt,value
2019-05-23T00:01:51.301Z,52.89
2019-05-23T00:02:51.236Z,52.89
2019-05-23T00:04:43.331Z,53.19
2019-05-23T00:05:43.269Z,52.80
2019-05-23T00:07:35.348Z,53.09
2019-05-23T00:08:35.303Z,53.09
2019-05-23T00:10:27.498Z,52.99
2019-05-23T00:11:27.442Z,53.19
2019-05-23T00:13:19.509Z,52.80
2019-05-23T00:14:19.474Z,52.80
2019-05-23T00:16:11.597Z,52.70
2019-05-23T00:17:11.565Z,52.89
2019-05-23T00:19:03.688Z,53.09
2019-05-23T00:20:03.649Z,52.70
2019-05-23T00:21:55.836Z,52.99
2019-05-23T00:22:56.014Z,52.99
2019-05-23T00:24:47.854Z,52.89
2019-05-23T00:25:48.054Z,52.99
2019-05-23T00:27:39.900Z,52.80
2019-05-23T00:28:40.083Z,52.99
2019-05-23T00:30:31.944Z,52.99
2019-05-23T00:31:31.911Z,52.99
2019-05-23T00:33:24.069Z,52.99
2019-05-23T00:34:24.024Z,53.19
2019-05-23T00:36:16.214Z,52.89
2019-05-23T00:37:16.158Z,52.70
2019-05-23T00:39:08.265Z,52.61
2019-05-23T00:40:08.192Z,52.80
2019-05-23T00:42:00.265Z,52.99
2019-05-23T00:43:00.462Z,53.38
2019-05-23T00:44:52.333Z,52.70
2019-05-23T00:45:52.507Z,52.70
2019-05-23T00:47:44.353Z,52.70
2019-05-23T00:48:44.531Z,52.70
2019-05-23T00:50:36.367Z,52.80
2019-05-23T00:51:36.357Z,52.99
2019-05-23T00:53:28.331Z,52.89
2019-05-23T00:54:28.289Z,53.28
2019-05-23T00:56:20.443Z,53.38
2019-05-23T00:57:20.438Z,53.28
2019-05-23T00:59:26.076Z,52.99
2019-05-23T01:00:12.428Z,53.28
2019-05-23T01:02:04.611Z,53.28
2019-05-23T01:03:04.569Z,53.47
2019-05-23T01:04:56.773Z,53.19
2019-05-23T01:05:56.707Z,53.38
2019-05-23T01:07:48.805Z,53.28
2019-05-23T01:08:48.750Z,53.28
2019-05-23T01:10:40.942Z,53.47
2019-05-23T01:11:40.878Z,53.38
2019-05-23T01:13:32.954Z,53.19
2019-05-23T01:14:32.913Z,53.19
2019-05-23T01:16:25.002Z,53.47
2019-05-23T01:17:25.179Z,53.47
2019-05-23T01:19:17.034Z,53.19
2019-05-23T01:20:17.215Z,53.19
2019-05-23T01:22:09.081Z,53.47
2019-05-23T01:23:09.020Z,53.28
2019-05-23T01:25:01.111Z,53.28
2019-05-23T01:26:01.053Z,53.47
2019-05-23T01:27:53.044Z,53.28
2019-05-23T01:28:53.218Z,53.19
2019-05-23T01:30:45.070Z,53.38
2019-05-23T01:31:45.249Z,53.38
2019-05-23T01:33:37.107Z,53.19
2019-05-23T01:34:37.051Z,53.19
2019-05-23T01:36:29.134Z,53.09
2019-05-23T01:37:29.316Z,53.47
2019-05-23T01:39:21.155Z,53.19
2019-05-23T01:40:21.351Z,53.28
2019-05-23T01:42:13.228Z,53.19
2019-05-23T01:43:13.152Z,53.19
2019-05-23T01:45:05.352Z,53.19
2019-05-23T01:46:05.290Z,53.47
2019-05-23T01:47:57.463Z,53.38
2019-05-23T01:48:57.426Z,53.38
2019-05-23T01:50:49.517Z,53.57
2019-05-23T01:51:49.462Z,53.57
2019-05-23T01:53:41.577Z,53.47
2019-05-23T01:54:41.497Z,53.19
2019-05-23T01:56:33.564Z,53.47
2019-05-23T01:57:33.762Z,53.28
2019-05-23T01:59:25.611Z,53.35
2019-05-23T02:00:25.798Z,53.35
2019-05-23T02:02:17.734Z,53.16
2019-05-23T02:03:17.938Z,53.28
2019-05-23T02:05:09.790Z,53.28
2019-05-23T02:06:10.005Z,53.45
2019-05-23T02:08:01.813Z,53.06
2019-05-23T02:09:01.775Z,53.45
2019-05-23T02:10:53.864Z,53.25
2019-05-23T02:11:53.802Z,53.19
2019-05-23T02:13:45.886Z,53.19
2019-05-23T02:14:45.837Z,53.19
2019-05-23T02:16:37.908Z,53.28
2019-05-23T02:17:37.870Z,53.06
2019-05-23T02:19:30.064Z,52.87
2019-05-23T02:20:30.010Z,53.16
2019-05-23T02:22:22.079Z,53.45
2019-05-23T02:23:22.046Z,53.35
2019-05-23T02:25:14.177Z,53.47
2019-05-23T02:26:14.094Z,53.45
2019-05-23T02:28:06.155Z,53.25
2019-05-23T02:29:06.113Z,53.45
2019-05-23T02:59:42.028Z,52.89
2019-05-23T03:00:53.203Z,52.97
2019-05-23T03:02:34.047Z,52.97
2019-05-23T03:03:34.005Z,53.16
2019-05-23T03:05:26.097Z,52.80
2019-05-23T03:06:26.038Z,52.87
2019-05-23T03:08:18.130Z,52.99
2019-05-23T03:09:18.172Z,53.09
2019-05-23T03:11:10.248Z,52.97
2019-05-23T03:12:10.214Z,53.09
2019-05-23T03:14:02.318Z,52.87
2019-05-23T03:15:02.247Z,52.99
2019-05-23T03:16:54.513Z,52.97
2019-05-23T03:17:54.385Z,52.99
2019-05-23T03:19:46.490Z,52.97
2019-05-23T03:20:46.419Z,53.09
2019-05-23T03:22:38.421Z,52.89
2019-05-23T03:23:38.606Z,52.89
2019-05-23T03:25:30.420Z,53.06
2019-05-23T03:26:30.383Z,52.87
2019-05-23T03:28:22.475Z,53.19
2019-05-23T03:29:22.649Z,52.42
2019-05-23T03:31:28.901Z,52.42
2019-05-23T03:32:14.459Z,53.25
2019-05-23T03:34:06.645Z,52.61
2019-05-23T03:35:06.596Z,53.06
2019-05-23T03:36:58.659Z,52.77
2019-05-23T03:37:58.633Z,53.25
2019-05-23T03:39:50.851Z,52.87
2019-05-23T03:40:50.765Z,52.39
2019-05-23T03:42:42.830Z,53.25
2019-05-23T03:43:42.791Z,52.39
2019-05-23T03:45:39.253Z,52.87
2019-05-23T03:46:34.832Z,52.39
2019-05-23T03:48:26.717Z,52.97
2019-05-23T03:49:26.671Z,52.61
2019-05-23T03:51:18.833Z,52.68
2019-05-23T03:52:18.799Z,53.06
2019-05-23T03:54:10.989Z,52.68
2019-05-23T03:55:10.933Z,52.77
2019-05-23T03:57:03.025Z,52.42
2019-05-23T03:58:02.966Z,52.68
2019-05-23T03:59:55.057Z,52.10
2019-05-23T04:00:55.005Z,52.42
2019-05-23T04:02:47.070Z,52.51
2019-05-23T04:03:47.036Z,52.42
2019-05-23T04:05:39.124Z,52.51
2019-05-23T04:06:39.306Z,52.51
2019-05-23T04:08:31.145Z,52.61
2019-05-23T04:09:31.130Z,52.32
2019-05-23T04:11:23.299Z,52.61
2019-05-23T04:12:23.240Z,52.32
2019-05-23T04:14:15.419Z,52.42
2019-05-23T04:15:15.384Z,52.32
2019-05-23T04:17:07.468Z,52.61
2019-05-23T04:18:07.408Z,52.22
2019-05-23T04:19:59.503Z,52.22
2019-05-23T04:20:59.445Z,52.12
2019-05-23T04:22:51.619Z,52.12
2019-05-23T04:23:51.583Z,51.93
2019-05-23T04:25:43.668Z,52.22
2019-05-23T04:26:43.613Z,51.93
2019-05-23T04:28:35.698Z,52.03
2019-05-23T04:29:35.650Z,51.93
2019-05-23T04:31:27.738Z,52.32
2019-05-23T04:32:27.684Z,51.93
2019-05-23T04:34:19.772Z,51.84
2019-05-23T04:35:19.716Z,51.93
2019-05-23T04:37:11.787Z,52.12
2019-05-23T04:38:11.990Z,52.12
2019-05-23T04:40:03.845Z,52.12
2019-05-23T04:41:04.021Z,51.55
2019-05-23T04:42:55.956Z,51.84
2019-05-23T04:43:56.156Z,51.74
2019-05-23T04:45:48.014Z,51.57
2019-05-23T04:46:47.994Z,51.45
2019-05-23T04:48:40.140Z,51.35
2019-05-23T04:49:40.333Z,51.35
2019-05-23T04:51:32.186Z,51.35
2019-05-23T04:52:32.128Z,51.48
2019-05-23T04:54:24.200Z,51.48
2019-05-23T04:55:24.165Z,51.29
2019-05-23T04:57:16.253Z,50.90
2019-05-23T04:58:16.432Z,50.90
2019-05-23T05:00:08.269Z,50.99
2019-05-23T05:01:08.468Z,50.90
2019-05-23T05:03:00.322Z,50.71
2019-05-23T05:04:00.269Z,51.09
2019-05-23T05:05:52.371Z,50.99
2019-05-23T05:06:52.317Z,51.19
2019-05-23T05:08:44.475Z,50.99
2019-05-23T05:09:44.443Z,50.99
2019-05-23T05:11:36.648Z,50.81
2019-05-23T05:12:36.580Z,50.61
2019-05-23T05:14:28.661Z,50.90
2019-05-23T05:15:28.608Z,50.61
2019-05-23T05:17:20.628Z,50.81
2019-05-23T05:18:20.545Z,50.61
2019-05-23T05:20:12.529Z,50.61
2019-05-23T05:21:12.482Z,50.71
2019-05-23T05:23:04.616Z,49.84
2019-05-23T05:24:04.763Z,49.94
2019-05-23T05:25:56.600Z,50.13
2019-05-23T05:26:57.410Z,50.13
2019-05-23T05:28:49.424Z,50.04
2019-05-23T05:29:48.706Z,50.51
2019-05-23T05:31:40.565Z,50.51
2019-05-23T05:32:45.400Z,50.42
2019-05-23T05:34:32.718Z,50.13
2019-05-23T05:35:32.646Z,49.84
2019-05-23T05:37:24.720Z,50.23
2019-05-23T05:38:28.303Z,49.94
2019-05-23T05:40:16.764Z,49.55
2019-05-23T05:41:16.717Z,49.65
2019-05-23T05:43:08.805Z,49.65
2019-05-23T05:44:11.606Z,49.65
2019-05-23T05:46:00.918Z,49.27
2019-05-23T05:47:01.119Z,49.36
2019-05-23T05:48:52.775Z,49.17
2019-05-23T05:49:52.949Z,48.88
2019-05-23T05:51:44.801Z,48.49
2019-05-23T05:52:44.750Z,48.11
2019-05-23T05:54:36.821Z,48.30
2019-05-23T05:55:36.790Z,48.21
2019-05-23T05:57:28.867Z,47.94
2019-05-23T05:58:28.819Z,48.21
2019-05-23T06:00:21.008Z,47.65
2019-05-23T06:01:33.264Z,47.46
2019-05-23T06:03:13.044Z,47.46
2019-05-23T06:04:12.989Z,46.98
2019-05-23T06:06:05.184Z,46.78
2019-05-23T06:07:05.357Z,47.08
2019-05-23T06:08:57.200Z,46.78
2019-05-23T06:09:57.393Z,46.88
2019-05-23T06:11:49.247Z,46.78
2019-05-23T06:12:49.192Z,46.69
2019-05-23T06:14:41.268Z,46.40
2019-05-23T06:15:41.227Z,46.31
2019-05-23T06:17:33.328Z,46.81
2019-05-23T06:18:33.261Z,46.59
2019-05-23T06:20:25.434Z,46.62
2019-05-23T06:21:25.406Z,46.91
2019-05-23T06:23:17.492Z,46.81
2019-05-23T06:24:17.668Z,46.52
2019-05-23T06:26:09.513Z,46.33
2019-05-23T06:27:09.703Z,46.04
2019-05-23T06:29:01.558Z,45.97
2019-05-23T06:30:01.736Z,46.15
2019-05-23T06:31:53.574Z,46.35
2019-05-23T06:32:53.573Z,46.25
2019-05-23T06:34:45.720Z,45.87
2019-05-23T06:35:45.906Z,45.77
2019-05-23T06:37:37.763Z,45.97
2019-05-23T06:38:37.740Z,45.31
2019-05-23T06:40:29.882Z,45.29
2019-05-23T06:41:30.087Z,45.39
2019-05-23T06:43:22.777Z,45.51
2019-05-23T06:44:22.780Z,45.77
2019-05-23T06:46:13.969Z,45.51
2019-05-23T06:47:14.727Z,45.03
2019-05-23T06:49:06.850Z,45.21
2019-05-23T06:50:05.947Z,45.41
2019-05-23T06:51:58.118Z,45.41
2019-05-23T06:52:58.076Z,45.03
2019-05-23T06:54:50.278Z,45.34
2019-05-23T06:55:50.222Z,44.56
2019-05-23T06:57:42.296Z,45.04
2019-05-23T06:58:42.254Z,44.76
2019-05-23T07:00:34.150Z,45.41
2019-05-23T07:01:34.174Z,47.14
2019-05-23T07:03:40.553Z,47.14
2019-05-23T07:04:27.007Z,48.38
2019-05-23T07:06:18.122Z,46.40
2019-05-23T07:07:18.066Z,46.61
2019-05-23T07:09:10.146Z,46.33
2019-05-23T07:10:10.086Z,45.65
2019-05-23T07:12:02.162Z,46.42
2019-05-23T07:13:02.127Z,46.54
2019-05-23T07:14:54.327Z,47.00
2019-05-23T07:15:54.257Z,46.78
2019-05-23T07:17:46.431Z,48.71
2019-05-23T07:18:46.396Z,49.17
2019-05-23T07:20:38.492Z,49.39
2019-05-23T07:21:38.428Z,48.33
2019-05-23T07:23:30.539Z,47.60
2019-05-23T07:24:30.466Z,46.33
2019-05-23T07:26:22.638Z,45.75
2019-05-23T07:27:22.602Z,47.67
2019-05-23T07:29:14.588Z,45.45
2019-05-23T07:30:14.531Z,46.23
2019-05-23T07:32:06.625Z,44.76
2019-05-23T07:33:06.566Z,45.92
2019-05-23T07:34:58.635Z,45.36
2019-05-23T07:35:58.598Z,45.09
2019-05-23T07:37:50.493Z,44.95
2019-05-23T07:38:50.447Z,46.42
2019-05-23T07:40:42.531Z,42.77
2019-05-23T07:41:42.698Z,43.93
2019-05-23T07:43:34.545Z,42.75
2019-05-23T07:44:47.349Z,43.72
2019-05-23T07:46:26.391Z,41.91
2019-05-23T07:47:27.332Z,39.57
2019-05-23T07:49:18.387Z,39.97
2019-05-23T07:50:18.599Z,38.12
2019-05-23T07:52:10.498Z,37.79
2019-05-23T07:53:10.638Z,38.58
2019-05-23T07:55:02.495Z,38.37
2019-05-23T07:56:02.533Z,39.45
2019-05-23T07:57:54.610Z,37.95
2019-05-23T07:58:54.794Z,38.81
2019-05-23T08:00:46.861Z,39.11
2019-05-23T08:01:47.033Z,38.70
2019-05-23T08:03:38.885Z,40.05
2019-05-23T08:04:38.853Z,38.04
2019-05-23T08:06:31.030Z,36.85
2019-05-23T08:07:32.826Z,39.49
2019-05-23T08:09:23.825Z,38.43
2019-05-23T08:10:32.961Z,38.04
2019-05-23T08:12:15.082Z,37.02
2019-05-23T08:13:15.049Z,36.22
2019-05-23T08:15:07.879Z,35.55
2019-05-23T08:16:07.110Z,34.94
2019-05-23T08:17:58.984Z,35.53
2019-05-23T08:18:59.141Z,35.53
2019-05-23T08:20:51.008Z,34.78
2019-05-23T08:21:51.177Z,34.20
2019-05-23T08:23:43.121Z,34.56
2019-05-23T08:24:43.094Z,35.45
2019-05-23T08:26:35.949Z,34.89
2019-05-23T08:27:35.347Z,35.10
2019-05-23T08:29:27.200Z,34.13
2019-05-23T08:30:27.943Z,34.23
2019-05-23T08:32:19.281Z,35.58
2019-05-23T08:33:19.415Z,36.08
2019-05-23T08:35:15.961Z,36.58
2019-05-23T08:36:11.216Z,36.78
2019-05-23T08:38:03.361Z,36.80
2019-05-23T08:39:03.484Z,37.48
2019-05-23T08:40:55.332Z,37.98
2019-05-23T08:41:55.544Z,35.84
2019-05-23T08:43:47.353Z,35.49
2019-05-23T08:44:47.552Z,36.30
2019-05-23T08:46:39.406Z,37.19
2019-05-23T08:47:39.349Z,35.86
2019-05-23T08:49:31.447Z,35.20
2019-05-23T08:50:31.392Z,35.58
2019-05-23T08:52:23.476Z,34.55
2019-05-23T08:53:23.422Z,33.86
2019-05-23T08:55:15.495Z,34.05
2019-05-23T08:56:19.257Z,34.17
2019-05-23T08:58:07.644Z,33.87
2019-05-23T08:59:07.595Z,33.65
2019-05-23T09:00:59.671Z,34.94
2019-05-23T09:01:59.861Z,34.55
2019-05-23T09:03:51.710Z,35.42
2019-05-23T09:05:04.594Z,36.48
2019-05-23T09:06:43.836Z,36.61
2019-05-23T09:07:43.795Z,34.05
2019-05-23T09:09:35.995Z,32.06
2019-05-23T09:10:35.933Z,31.57
2019-05-23T09:12:28.106Z,31.86
2019-05-23T09:13:28.074Z,32.26
2019-05-23T09:15:20.060Z,32.07
2019-05-23T09:16:20.003Z,31.78
2019-05-23T09:18:11.872Z,32.09
2019-05-23T09:19:11.839Z,32.07
2019-05-23T09:21:03.929Z,32.28
2019-05-23T09:22:04.674Z,31.99
2019-05-23T09:23:55.947Z,32.00
2019-05-23T09:24:56.138Z,31.81
2019-05-23T09:26:47.990Z,31.52
2019-05-23T09:27:47.939Z,31.81
2019-05-23T09:29:40.016Z,31.15
2019-05-23T09:30:40.007Z,29.88
2019-05-23T09:32:32.070Z,31.15
2019-05-23T09:33:32.009Z,30.66
2019-05-23T09:35:24.076Z,30.27
2019-05-23T09:36:24.075Z,30.68
2019-05-23T09:38:16.125Z,30.18
2019-05-23T09:39:16.082Z,30.27
2019-05-23T09:41:08.247Z,30.77
2019-05-23T09:42:11.889Z,31.07
2019-05-23T09:44:00.300Z,30.18
2019-05-23T09:45:00.261Z,29.11
2019-05-23T09:46:52.316Z,29.91
2019-05-23T09:47:52.286Z,29.51
2019-05-23T09:49:53.762Z,28.81
2019-05-23T09:50:44.325Z,29.71
2019-05-23T09:52:36.484Z,29.72
2019-05-23T09:53:36.460Z,29.54
2019-05-23T09:55:28.543Z,28.96
2019-05-23T09:56:28.489Z,28.36
2019-05-23T09:58:20.582Z,28.94
2019-05-23T09:59:20.756Z,28.76
2019-05-23T10:01:12.595Z,28.36
2019-05-23T10:02:12.584Z,29.14
2019-05-23T10:04:04.751Z,28.08
2019-05-23T10:05:04.701Z,28.18
2019-05-23T10:06:56.775Z,28.66
2019-05-23T10:07:56.731Z,28.39
2019-05-23T10:09:48.833Z,28.38
2019-05-23T10:10:48.768Z,28.45
2019-05-23T10:12:40.937Z,28.08
2019-05-23T10:13:40.912Z,28.49
2019-05-23T10:15:32.985Z,28.18
2019-05-23T10:16:32.935Z,28.68
2019-05-23T10:18:24.918Z,27.61
2019-05-23T10:19:24.897Z,27.89
2019-05-23T10:21:16.944Z,28.19
2019-05-23T10:22:16.905Z,28.19
2019-05-23T10:24:08.970Z,28.58
2019-05-23T10:25:08.945Z,28.39
2019-05-23T10:27:01.021Z,28.29
2019-05-23T10:28:00.978Z,28.40
2019-05-23T10:29:53.056Z,27.72
2019-05-23T10:30:53.012Z,27.72
2019-05-23T10:32:44.987Z,28.20
2019-05-23T10:33:44.949Z,28.39
2019-05-23T10:35:37.026Z,28.20
2019-05-23T10:36:36.984Z,28.29
2019-05-23T10:38:29.581Z,28.68
2019-05-23T10:39:29.008Z,28.08
2019-05-23T10:41:21.078Z,28.66
2019-05-23T10:42:21.041Z,28.38
2019-05-23T10:44:13.919Z,28.96
2019-05-23T10:45:13.076Z,28.86
2019-05-23T10:47:05.158Z,28.57
2019-05-23T10:48:05.129Z,29.25
2019-05-23T10:49:57.300Z,29.05
2019-05-23T10:50:57.247Z,29.16
2019-05-23T10:52:49.350Z,28.28
2019-05-23T10:53:49.511Z,28.19
2019-05-23T10:55:41.369Z,27.80
2019-05-23T10:56:41.374Z,28.29
2019-05-23T10:58:33.345Z,28.20
2019-05-23T10:59:33.257Z,27.70
2019-05-23T11:01:25.335Z,28.57
2019-05-23T11:02:27.136Z,28.38
2019-05-23T11:04:17.363Z,28.94
2019-05-23T11:05:17.560Z,28.65
2019-05-23T11:07:09.414Z,27.97
2019-05-23T11:08:09.352Z,27.68
2019-05-23T11:10:01.518Z,28.66
2019-05-23T11:11:01.512Z,27.89
2019-05-23T11:12:53.569Z,28.36
2019-05-23T11:13:53.520Z,28.66
2019-05-23T11:15:45.609Z,28.39
2019-05-23T11:16:45.557Z,27.51
2019-05-23T11:18:37.724Z,28.69
2019-05-23T11:19:37.850Z,28.40
2019-05-23T11:21:29.786Z,28.02
2019-05-23T11:22:30.010Z,28.11
2019-05-23T11:24:21.813Z,28.20
2019-05-23T11:25:22.001Z,28.30
2019-05-23T11:27:13.838Z,28.88
2019-05-23T11:28:13.798Z,29.26
2019-05-23T11:30:05.883Z,29.35
2019-05-23T11:31:05.843Z,29.36
2019-05-23T11:32:57.904Z,28.89
2019-05-23T11:33:57.865Z,28.69
2019-05-23T11:35:49.964Z,29.06
2019-05-23T11:36:49.900Z,29.28
2019-05-23T11:38:41.972Z,29.08
2019-05-23T11:39:49.281Z,28.99
2019-05-23T11:41:34.030Z,28.99
2019-05-23T11:42:33.970Z,28.99
2019-05-23T11:44:26.057Z,29.28
2019-05-23T11:45:26.003Z,29.47
2019-05-23T11:47:18.194Z,30.05
2019-05-23T11:48:18.184Z,29.85
2019-05-23T11:50:10.392Z,30.04
2019-05-23T11:51:10.275Z,30.04
2019-05-23T11:53:02.446Z,30.15
2019-05-23T11:54:08.323Z,29.86
2019-05-23T11:55:54.804Z,29.19
2019-05-23T11:56:54.448Z,29.00
2019-05-23T11:58:46.514Z,28.69
2019-05-23T11:59:46.487Z,29.10
2019-05-23T12:01:38.572Z,28.80
2019-05-23T12:02:38.517Z,28.90
2019-05-23T12:04:31.509Z,29.28
2019-05-23T12:05:31.502Z,29.86
2019-05-23T12:07:23.551Z,30.15
2019-05-23T12:08:23.513Z,29.76
2019-05-23T12:10:15.602Z,28.68
2019-05-23T12:11:15.630Z,29.36
2019-05-23T12:13:07.628Z,29.55
2019-05-23T12:14:07.599Z,29.55
2019-05-23T12:15:59.764Z,29.38
2019-05-23T12:16:59.939Z,29.08
2019-05-23T12:18:51.807Z,28.99
2019-05-23T12:19:51.749Z,28.89
2019-05-23T12:21:43.917Z,28.99
2019-05-23T12:22:43.917Z,29.08
2019-05-23T12:24:36.087Z,28.69
2019-05-23T12:25:35.920Z,28.69
2019-05-23T12:27:28.013Z,28.50
2019-05-23T12:28:28.179Z,28.11
2019-05-23T12:30:20.026Z,27.14
2019-05-23T12:31:20.214Z,28.40
2019-05-23T12:33:14.439Z,29.18
2019-05-23T12:34:12.028Z,28.39
2019-05-23T12:36:04.117Z,29.06
2019-05-23T12:37:18.292Z,29.36
2019-05-23T12:38:56.143Z,29.66
2019-05-23T12:39:56.315Z,29.28
2019-05-23T12:41:48.162Z,29.28
2019-05-23T12:42:48.128Z,28.99
2019-05-23T12:44:40.324Z,29.08
2019-05-23T12:45:40.164Z,29.38
2019-05-23T12:47:32.355Z,29.38
2019-05-23T12:48:32.302Z,29.28
2019-05-23T12:50:24.402Z,29.16
2019-05-23T12:51:24.342Z,29.94
2019-05-23T12:53:16.404Z,29.93
2019-05-23T12:54:16.390Z,29.05
2019-05-23T12:56:08.381Z,29.93
2019-05-23T12:57:08.524Z,30.02
2019-05-23T12:59:00.365Z,30.12
2019-05-23T13:00:00.334Z,30.32
2019-05-23T13:01:52.420Z,30.33
2019-05-23T13:02:52.369Z,29.35
2019-05-23T13:04:44.741Z,30.32
2019-05-23T13:05:44.501Z,30.33
2019-05-23T13:07:37.013Z,30.33
2019-05-23T13:08:36.545Z,30.32
2019-05-23T13:10:28.606Z,30.51
2019-05-23T13:11:28.575Z,30.59
2019-05-23T13:13:20.702Z,30.80
2019-05-23T13:14:20.612Z,31.00
2019-05-23T13:16:12.692Z,31.00
2019-05-23T13:17:12.890Z,30.90
2019-05-23T13:19:04.752Z,30.71
2019-05-23T13:20:04.904Z,31.29
2019-05-23T13:21:56.747Z,31.08
2019-05-23T13:22:56.936Z,30.69
2019-05-23T13:24:52.535Z,30.00
2019-05-23T13:25:48.768Z,30.01
2019-05-23T13:27:40.715Z,30.19
2019-05-23T13:28:40.690Z,30.00
2019-05-23T13:30:32.659Z,30.21
2019-05-23T13:31:32.614Z,30.21
2019-05-23T13:33:24.688Z,30.01
2019-05-23T13:34:24.645Z,29.72
2019-05-23T13:36:16.730Z,29.82
2019-05-23T13:37:17.365Z,29.24
2019-05-23T13:39:08.746Z,30.01
2019-05-23T13:40:08.711Z,30.30
2019-05-23T13:42:00.797Z,30.32
2019-05-23T13:43:00.752Z,30.30
2019-05-23T13:44:52.850Z,30.29
2019-05-23T13:45:52.780Z,31.18
2019-05-23T13:47:44.864Z,31.08
2019-05-23T13:48:44.823Z,30.87
2019-05-23T13:50:36.903Z,30.19
2019-05-23T13:51:36.846Z,30.97
2019-05-23T13:53:28.921Z,31.08
2019-05-23T13:54:28.883Z,31.18
2019-05-23T13:56:20.980Z,31.07
2019-05-23T13:57:21.169Z,31.45
2019-05-23T13:59:13.005Z,31.55
2019-05-23T14:00:13.177Z,31.55
2019-05-23T14:02:05.023Z,31.15
2019-05-23T14:03:04.997Z,30.97
2019-05-23T14:04:57.073Z,31.73
2019-05-23T14:05:57.022Z,31.53
2019-05-23T14:07:49.097Z,32.04
2019-05-23T14:08:49.054Z,30.95
2019-05-23T14:10:41.121Z,31.55
2019-05-23T14:11:41.089Z,31.45
2019-05-23T14:13:33.450Z,30.37
2019-05-23T14:14:33.453Z,31.15
2019-05-23T14:16:25.295Z,30.76
2019-05-23T14:17:25.492Z,30.95
2019-05-23T14:19:17.354Z,31.15
2019-05-23T14:20:17.302Z,31.05
2019-05-23T14:22:09.362Z,30.66
2019-05-23T14:23:09.477Z,30.76
2019-05-23T14:25:01.548Z,30.84
2019-05-23T14:26:01.469Z,31.13
2019-05-23T14:27:53.545Z,31.42
2019-05-23T14:28:53.499Z,31.42
2019-05-23T14:30:45.596Z,31.71
2019-05-23T14:31:45.533Z,31.52
2019-05-23T14:33:37.606Z,31.41
2019-05-23T14:34:37.796Z,31.89
2019-05-23T14:36:32.216Z,31.71
2019-05-23T14:37:29.606Z,31.70
2019-05-23T14:39:21.669Z,31.91
2019-05-23T14:40:21.630Z,31.70
2019-05-23T14:42:13.745Z,31.70
2019-05-23T14:43:13.673Z,31.91
2019-05-23T14:45:05.748Z,31.21
2019-05-23T14:46:05.708Z,31.41
2019-05-23T14:47:57.904Z,31.79
2019-05-23T14:48:58.073Z,31.99
2019-05-23T14:50:49.932Z,31.70
2019-05-23T14:51:50.106Z,31.68
2019-05-23T14:53:41.964Z,31.89
2019-05-23T14:54:41.912Z,31.70
2019-05-23T14:56:33.977Z,31.87
2019-05-23T14:57:33.946Z,31.89
2019-05-23T14:59:26.134Z,31.78
2019-05-23T15:00:26.086Z,31.78
2019-05-23T15:02:18.173Z,31.89
2019-05-23T15:03:18.134Z,31.79
2019-05-23T15:05:10.186Z,31.99
2019-05-23T15:06:10.154Z,31.79
2019-05-23T15:08:02.246Z,32.18
2019-05-23T15:09:02.212Z,32.18
2019-05-23T15:10:54.688Z,32.86
2019-05-23T15:11:54.866Z,32.67
2019-05-23T15:13:46.696Z,32.67
2019-05-23T15:14:46.896Z,32.76
2019-05-23T15:16:38.754Z,32.76
2019-05-23T15:17:38.704Z,32.76
2019-05-23T15:19:40.366Z,32.76
2019-05-23T15:20:30.835Z,32.96
2019-05-23T15:22:22.904Z,33.06
2019-05-23T15:23:23.172Z,33.15
2019-05-23T15:25:14.955Z,33.15
2019-05-23T15:26:23.197Z,33.04
2019-05-23T15:28:07.092Z,33.15
2019-05-23T15:29:07.041Z,33.14
2019-05-23T15:30:59.127Z,33.04
2019-05-23T15:32:02.666Z,33.04
2019-05-23T15:33:51.245Z,33.14
2019-05-23T15:34:51.212Z,33.23
2019-05-23T15:36:43.307Z,33.14
2019-05-23T15:37:43.278Z,33.33
2019-05-23T15:39:35.436Z,33.14
2019-05-23T15:40:35.614Z,33.33
2019-05-23T15:42:27.459Z,34.30
2019-05-23T15:43:27.646Z,34.01
2019-05-23T15:45:19.504Z,34.01
2019-05-23T15:46:19.683Z,34.11
2019-05-23T15:48:11.546Z,34.20
2019-05-23T15:49:11.492Z,34.01
2019-05-23T15:51:03.568Z,34.11
2019-05-23T15:52:03.749Z,34.11
2019-05-23T15:53:55.610Z,34.20
2019-05-23T15:54:55.784Z,34.47
2019-05-23T15:56:47.618Z,34.49
2019-05-23T15:57:47.595Z,34.28
2019-05-23T15:59:39.677Z,34.57
2019-05-23T16:00:39.626Z,34.77
2019-05-23T16:02:31.701Z,34.77
2019-05-23T16:03:31.800Z,35.15
2019-05-23T16:05:23.738Z,35.25
2019-05-23T16:06:23.705Z,34.96
2019-05-23T16:08:15.780Z,35.05
2019-05-23T16:09:28.755Z,35.15
2019-05-23T16:11:07.813Z,35.15
2019-05-23T16:12:07.762Z,35.35
2019-05-23T16:14:00.466Z,34.96
2019-05-23T16:15:00.411Z,34.96
2019-05-23T16:16:56.214Z,35.33
2019-05-23T16:17:52.446Z,35.44
2019-05-23T16:19:44.640Z,35.52
2019-05-23T16:20:44.818Z,35.42
2019-05-23T16:22:36.680Z,35.42
2019-05-23T16:23:36.760Z,35.81
2019-05-23T16:25:28.581Z,35.81
2019-05-23T16:26:28.779Z,35.81
2019-05-23T16:28:20.733Z,36.20
2019-05-23T16:29:20.711Z,35.72
2019-05-23T16:31:12.857Z,35.81
2019-05-23T16:32:13.057Z,36.10
2019-05-23T16:34:04.911Z,35.81
2019-05-23T16:35:04.857Z,35.91
2019-05-23T16:36:56.932Z,36.10
2019-05-23T16:37:57.171Z,36.20
2019-05-23T16:39:50.188Z,36.10
2019-05-23T16:40:49.154Z,36.20
2019-05-23T16:42:41.016Z,36.00
2019-05-23T16:43:40.965Z,36.10
2019-05-23T16:45:33.148Z,36.78
2019-05-23T16:46:33.090Z,36.68
2019-05-23T16:48:25.349Z,36.58
2019-05-23T16:49:25.132Z,36.57
2019-05-23T16:51:17.223Z,36.47
2019-05-23T16:52:17.168Z,36.57
2019-05-23T16:54:09.242Z,36.57
2019-05-23T16:55:09.202Z,36.76
2019-05-23T16:57:01.286Z,36.57
2019-05-23T16:58:01.464Z,36.66
2019-05-23T16:59:53.321Z,36.86
2019-05-23T17:00:53.502Z,36.76
2019-05-23T17:02:45.336Z,36.86
2019-05-23T17:03:45.535Z,36.86
2019-05-23T17:05:37.390Z,36.86
2019-05-23T17:06:37.576Z,36.96
2019-05-23T17:08:29.425Z,37.15
2019-05-23T17:09:31.769Z,36.96
2019-05-23T17:11:21.454Z,37.15
2019-05-23T17:12:21.410Z,37.15
2019-05-23T17:14:13.497Z,37.23
2019-05-23T17:15:13.441Z,37.24
2019-05-23T17:17:05.983Z,37.32
2019-05-23T17:18:05.477Z,37.42
2019-05-23T17:19:57.548Z,37.32
2019-05-23T17:20:57.510Z,37.23
2019-05-23T17:22:49.602Z,37.42
2019-05-23T17:23:49.546Z,37.62
2019-05-23T17:25:41.532Z,37.52
2019-05-23T17:26:41.477Z,37.52
2019-05-23T17:28:33.550Z,37.62
2019-05-23T17:29:33.511Z,37.62
2019-05-23T17:31:25.699Z,37.81
2019-05-23T17:32:25.649Z,37.62
2019-05-23T17:34:17.739Z,37.52
2019-05-23T17:35:17.687Z,37.81
2019-05-23T17:37:09.772Z,37.71
2019-05-23T17:38:09.718Z,38.00
2019-05-23T17:40:01.790Z,38.29
2019-05-23T17:41:01.755Z,38.00
2019-05-23T17:42:53.850Z,38.39
2019-05-23T17:43:53.795Z,38.39
2019-05-23T17:45:45.854Z,38.39
2019-05-23T17:46:45.820Z,38.48
2019-05-23T17:48:37.901Z,38.39
2019-05-23T17:49:37.873Z,38.39
2019-05-23T17:51:29.939Z,38.29
2019-05-23T17:52:30.118Z,38.39
2019-05-23T17:54:21.972Z,38.46
2019-05-23T17:55:22.152Z,38.39
2019-05-23T17:57:14.124Z,38.87
2019-05-23T17:58:14.290Z,38.66
2019-05-23T18:00:06.170Z,38.56
2019-05-23T18:01:06.323Z,38.56
2019-05-23T18:02:58.189Z,38.28
2019-05-23T18:03:58.358Z,38.28
2019-05-23T18:05:50.231Z,38.28
2019-05-23T18:06:50.188Z,38.76
2019-05-23T18:08:42.331Z,38.37
2019-05-23T18:09:42.527Z,38.56
2019-05-23T18:11:34.385Z,38.66
2019-05-23T18:12:34.580Z,38.66
2019-05-23T18:14:26.409Z,38.76
2019-05-23T18:15:26.603Z,38.46
2019-05-23T18:17:18.557Z,39.04
2019-05-23T18:18:18.528Z,39.24
2019-05-23T18:20:10.678Z,38.95
2019-05-23T18:21:10.682Z,38.95
2019-05-23T18:23:02.823Z,39.03
2019-05-23T18:24:02.782Z,38.66
2019-05-23T18:25:54.951Z,39.24
2019-05-23T18:26:54.916Z,39.51
2019-05-23T18:28:47.022Z,39.41
2019-05-23T18:29:46.976Z,39.22
2019-05-23T18:31:38.922Z,39.51
2019-05-23T18:32:38.917Z,39.22
2019-05-23T18:34:31.079Z,39.32
2019-05-23T18:35:31.253Z,39.41
2019-05-23T18:37:23.206Z,39.61
2019-05-23T18:38:23.389Z,39.32
2019-05-23T18:40:15.261Z,39.41
2019-05-23T18:41:15.421Z,39.51
2019-05-23T18:43:07.377Z,39.61
2019-05-23T18:44:07.343Z,40.09
2019-05-23T18:45:59.417Z,40.09
2019-05-23T18:46:59.363Z,39.99
2019-05-23T18:48:51.451Z,39.99
2019-05-23T18:49:51.399Z,40.09
2019-05-23T18:51:43.473Z,39.78
2019-05-23T18:52:43.454Z,39.99
2019-05-23T18:54:35.631Z,40.26
2019-05-23T18:55:35.797Z,40.26
2019-05-23T18:57:27.652Z,40.07